sensor_id;sensor_type;location;lat;lon;timestamp;temperature;humidity
5930;DHT22;2990;48.746;9.236;2022-10-31T08:43:28;13.00;1.00
5930;DHT22;2990;48.746;9.236;2022-10-31T08:45:54;13.10;1.00
5930;DHT22;2990;48.746;9.236;2022-10-31T08:48:20;13.20;1.00
5930;DHT22;2990;48.746;9.236;2022-10-31T08:50:47;13.30;1.00
5930;DHT22;2990;48.746;9.236;2022-10-31T08:53:17;13.50;1.00
5930;DHT22;2990;48.746;9.236;2022-10-31T08:55:44;13.50;1.00
5930;DHT22;2990;48.746;9.236;2022-10-31T08:58:13;13.60;1.00
5930;DHT22;2990;48.746;9.236;2022-10-31T09:00:39;13.70;1.00
5930;DHT22;2990;48.746;9.236;2022-10-31T09:03:08;13.80;1.00
5930;DHT22;2990;48.746;9.236;2022-10-31T09:05:34;13.80;99.90
5930;DHT22;2990;48.746;9.236;2022-10-31T09:08:01;13.90;99.90
5930;DHT22;2990;48.746;9.236;2022-10-31T09:10:28;13.90;99.90
5930;DHT22;2990;48.746;9.236;2022-10-31T09:13:00;14.00;99.90
5930;DHT22;2990;48.746;9.236;2022-10-31T09:15:52;14.10;99.90
5930;DHT22;2990;48.746;9.236;2022-10-31T09:18:25;14.20;1.00
5930;DHT22;2990;48.746;9.236;2022-10-31T09:20:53;14.30;1.00
5930;DHT22;2990;48.746;9.236;2022-10-31T09:23:21;14.40;99.90
5930;DHT22;2990;48.746;9.236;2022-10-31T09:25:49;14.50;99.90
5930;DHT22;2990;48.746;9.236;2022-10-31T09:28:17;14.50;99.90
5930;DHT22;2990;48.746;9.236;2022-10-31T09:30:46;14.60;99.90
5930;DHT22;2990;48.746;9.236;2022-10-31T09:33:13;14.60;85.80
5930;DHT22;2990;48.746;9.236;2022-10-31T09:35:41;14.70;1.00
5930;DHT22;2990;48.746;9.236;2022-10-31T09:38:12;14.60;1.00
5930;DHT22;2990;48.746;9.236;2022-10-31T09:51:54;14.80;1.00
5930;DHT22;2990;48.746;9.236;2022-10-31T09:54:38;14.80;99.90
5930;DHT22;2990;48.746;9.236;2022-10-31T09:57:10;14.90;99.90
5930;DHT22;2990;48.746;9.236;2022-10-31T09:59:40;14.90;99.90
5930;DHT22;2990;48.746;9.236;2022-10-31T10:02:23;15.00;1.00
5930;DHT22;2990;48.746;9.236;2022-10-31T10:05:03;15.10;99.90
5930;DHT22;2990;48.746;9.236;2022-10-31T10:07:57;15.10;1.00
5930;DHT22;2990;48.746;9.236;2022-10-31T10:13:41;15.50;99.90
5930;DHT22;2990;48.746;9.236;2022-10-31T10:21:43;15.60;99.90
5930;DHT22;2990;48.746;9.236;2022-10-31T10:24:17;15.70;1.00
5930;DHT22;2990;48.746;9.236;2022-10-31T10:30:02;15.80;22.50
5930;DHT22;2990;48.746;9.236;2022-10-31T10:32:31;15.90;99.90
5930;DHT22;2990;48.746;9.236;2022-10-31T10:38:48;16.10;1.00
5930;DHT22;2990;48.746;9.236;2022-10-31T10:40:46;16.00;1.00
5930;DHT22;2990;48.746;9.236;2022-10-31T10:45:50;15.90;99.90
5930;DHT22;2990;48.746;9.236;2022-10-31T10:48:52;15.90;1.00
5930;DHT22;2990;48.746;9.236;2022-10-31T10:54:23;15.80;1.00
5930;DHT22;2990;48.746;9.236;2022-10-31T10:59:25;15.80;99.90
5930;DHT22;2990;48.746;9.236;2022-10-31T11:01:52;15.70;2.10
5930;DHT22;2990;48.746;9.236;2022-10-31T11:04:34;15.70;78.10
5930;DHT22;2990;48.746;9.236;2022-10-31T11:07:11;15.70;67.60
5930;DHT22;2990;48.746;9.236;2022-10-31T11:09:38;15.70;1.00
5930;DHT22;2990;48.746;9.236;2022-10-31T11:12:24;15.70;99.90
5930;DHT22;2990;48.746;9.236;2022-10-31T11:14:57;15.70;1.00
5930;DHT22;2990;48.746;9.236;2022-10-31T11:17:32;15.70;1.00
5930;DHT22;2990;48.746;9.236;2022-10-31T11:22:47;16.00;1.00
5930;DHT22;2990;48.746;9.236;2022-10-31T11:27:45;16.30;99.90
5930;DHT22;2990;48.746;9.236;2022-10-31T11:30:15;16.50;99.90
5930;DHT22;2990;48.746;9.236;2022-10-31T11:32:48;16.70;1.00
5930;DHT22;2990;48.746;9.236;2022-10-31T11:35:18;16.80;99.90
5930;DHT22;2990;48.746;9.236;2022-10-31T11:37:48;16.90;99.90
5930;DHT22;2990;48.746;9.236;2022-10-31T11:40:26;16.90;1.00
5930;DHT22;2990;48.746;9.236;2022-10-31T11:42:56;16.80;1.00
5930;DHT22;2990;48.746;9.236;2022-10-31T11:47:51;17.00;99.90
5930;DHT22;2990;48.746;9.236;2022-10-31T11:50:35;17.20;1.00
5930;DHT22;2990;48.746;9.236;2022-10-31T11:53:03;17.30;99.90
5930;DHT22;2990;48.746;9.236;2022-10-31T11:55:38;17.40;99.90
5930;DHT22;2990;48.746;9.236;2022-10-31T11:58:24;17.50;1.00
5930;DHT22;2990;48.746;9.236;2022-10-31T12:00:55;17.50;1.00
5930;DHT22;2990;48.746;9.236;2022-10-31T12:06:02;17.50;99.90
5930;DHT22;2990;48.746;9.236;2022-10-31T12:08:31;17.60;99.90
5930;DHT22;2990;48.746;9.236;2022-10-31T12:11:09;17.50;99.90
5930;DHT22;2990;48.746;9.236;2022-10-31T12:22:17;17.70;1.00
5930;DHT22;2990;48.746;9.236;2022-10-31T12:43:48;17.60;1.00
5930;DHT22;2990;48.746;9.236;2022-10-31T12:46:45;17.60;99.90
5930;DHT22;2990;48.746;9.236;2022-10-31T12:57:27;17.30;80.90
5930;DHT22;2990;48.746;9.236;2022-10-31T13:00:04;17.30;99.90
5930;DHT22;2990;48.746;9.236;2022-10-31T13:03:33;17.20;99.90
5930;DHT22;2990;48.746;9.236;2022-10-31T13:05:42;17.20;99.90
5930;DHT22;2990;48.746;9.236;2022-10-31T13:08:22;17.10;1.00
5930;DHT22;2990;48.746;9.236;2022-10-31T13:11:15;17.10;1.00
5930;DHT22;2990;48.746;9.236;2022-10-31T13:13:56;17.10;1.00
5930;DHT22;2990;48.746;9.236;2022-10-31T13:16:27;17.10;1.00
5930;DHT22;2990;48.746;9.236;2022-10-31T13:21:42;17.10;1.00
5930;DHT22;2990;48.746;9.236;2022-10-31T13:26:59;17.10;1.00
5930;DHT22;2990;48.746;9.236;2022-10-31T13:32:15;17.10;76.00
5930;DHT22;2990;48.746;9.236;2022-10-31T13:34:47;17.10;99.90
5930;DHT22;2990;48.746;9.236;2022-10-31T13:37:35;17.10;99.90
5930;DHT22;2990;48.746;9.236;2022-10-31T13:45:55;17.30;1.00
5930;DHT22;2990;48.746;9.236;2022-10-31T13:51:06;17.80;1.00
5930;DHT22;2990;48.746;9.236;2022-10-31T13:53:45;17.90;99.90
5930;DHT22;2990;48.746;9.236;2022-10-31T13:56:31;17.90;6.10
5930;DHT22;2990;48.746;9.236;2022-10-31T14:01:36;18.00;44.10
5930;DHT22;2990;48.746;9.236;2022-10-31T14:04:06;18.00;22.70
